sensor_id;sensor_type;location;lat;lon;timestamp;temperature;humidity
19522;DHT22;9905;52.126;5.596;2022-11-15T00:00:46;7.40;99.90
19522;DHT22;9905;52.126;5.596;2022-11-15T00:03:14;7.50;99.90
19522;DHT22;9905;52.126;5.596;2022-11-15T00:05:41;7.50;99.90
19522;DHT22;9905;52.126;5.596;2022-11-15T00:08:08;7.50;99.90
19522;DHT22;9905;52.126;5.596;2022-11-15T00:10:37;7.50;99.90
19522;DHT22;9905;52.126;5.596;2022-11-15T00:13:06;7.50;99.90
19522;DHT22;9905;52.126;5.596;2022-11-15T00:15:35;7.50;99.90
19522;DHT22;9905;52.126;5.596;2022-11-15T00:18:02;7.50;99.90
19522;DHT22;9905;52.126;5.596;2022-11-15T00:20:29;7.50;99.90
19522;DHT22;9905;52.126;5.596;2022-11-15T00:22:56;7.50;99.90
19522;DHT22;9905;52.126;5.596;2022-11-15T00:25:22;7.50;99.90
19522;DHT22;9905;52.126;5.596;2022-11-15T00:27:55;7.60;99.90
19522;DHT22;9905;52.126;5.596;2022-11-15T00:30:21;7.60;99.90
19522;DHT22;9905;52.126;5.596;2022-11-15T00:32:48;7.60;99.90
19522;DHT22;9905;52.126;5.596;2022-11-15T00:35:15;7.70;99.90
19522;DHT22;9905;52.126;5.596;2022-11-15T00:37:42;7.70;99.90
19522;DHT22;9905;52.126;5.596;2022-11-15T00:40:10;7.70;99.90
19522;DHT22;9905;52.126;5.596;2022-11-15T00:42:38;7.70;99.90
19522;DHT22;9905;52.126;5.596;2022-11-15T00:45:07;7.70;99.90
19522;DHT22;9905;52.126;5.596;2022-11-15T00:47:34;7.70;99.90
19522;DHT22;9905;52.126;5.596;2022-11-15T00:50:01;7.80;99.90
19522;DHT22;9905;52.126;5.596;2022-11-15T00:52:27;7.80;99.90
19522;DHT22;9905;52.126;5.596;2022-11-15T00:54:54;7.80;99.90
19522;DHT22;9905;52.126;5.596;2022-11-15T00:57:21;7.80;99.90
19522;DHT22;9905;52.126;5.596;2022-11-15T00:59:47;7.80;99.90
19522;DHT22;9905;52.126;5.596;2022-11-15T01:02:15;7.80;99.90
19522;DHT22;9905;52.126;5.596;2022-11-15T01:04:42;7.90;99.90
19522;DHT22;9905;52.126;5.596;2022-11-15T01:07:09;7.90;99.90
19522;DHT22;9905;52.126;5.596;2022-11-15T01:09:36;8.00;99.90
19522;DHT22;9905;52.126;5.596;2022-11-15T01:12:03;8.00;99.90
19522;DHT22;9905;52.126;5.596;2022-11-15T01:14:30;8.00;99.90
19522;DHT22;9905;52.126;5.596;2022-11-15T01:16:56;8.00;99.90
19522;DHT22;9905;52.126;5.596;2022-11-15T01:19:24;8.00;99.90
19522;DHT22;9905;52.126;5.596;2022-11-15T01:21:51;8.10;99.90
19522;DHT22;9905;52.126;5.596;2022-11-15T01:24:18;8.00;99.90
19522;DHT22;9905;52.126;5.596;2022-11-15T01:26:45;8.10;99.90
19522;DHT22;9905;52.126;5.596;2022-11-15T01:29:11;8.10;99.90
19522;DHT22;9905;52.126;5.596;2022-11-15T01:31:38;8.10;99.90
19522;DHT22;9905;52.126;5.596;2022-11-15T01:34:05;8.10;99.90
19522;DHT22;9905;52.126;5.596;2022-11-15T01:36:33;8.10;99.90
19522;DHT22;9905;52.126;5.596;2022-11-15T01:39:00;8.10;99.90
19522;DHT22;9905;52.126;5.596;2022-11-15T01:41:28;8.20;99.90
19522;DHT22;9905;52.126;5.596;2022-11-15T01:43:56;8.10;99.90
19522;DHT22;9905;52.126;5.596;2022-11-15T01:46:28;8.20;99.90
19522;DHT22;9905;52.126;5.596;2022-11-15T01:48:59;8.20;99.90
19522;DHT22;9905;52.126;5.596;2022-11-15T01:51:29;8.20;99.90
19522;DHT22;9905;52.126;5.596;2022-11-15T01:54:02;8.20;99.90
19522;DHT22;9905;52.126;5.596;2022-11-15T01:56:32;8.20;99.90
19522;DHT22;9905;52.126;5.596;2022-11-15T01:59:04;8.30;99.90
19522;DHT22;9905;52.126;5.596;2022-11-15T02:01:33;8.30;99.90
19522;DHT22;9905;52.126;5.596;2022-11-15T02:04:04;8.30;99.90
19522;DHT22;9905;52.126;5.596;2022-11-15T02:06:32;8.40;99.90
19522;DHT22;9905;52.126;5.596;2022-11-15T02:09:00;8.40;99.90
19522;DHT22;9905;52.126;5.596;2022-11-15T02:11:28;8.40;99.90
19522;DHT22;9905;52.126;5.596;2022-11-15T02:13:55;8.40;99.90
19522;DHT22;9905;52.126;5.596;2022-11-15T02:16:29;8.50;99.90
19522;DHT22;9905;52.126;5.596;2022-11-15T02:19:05;8.50;99.90
19522;DHT22;9905;52.126;5.596;2022-11-15T02:21:38;8.50;99.90
19522;DHT22;9905;52.126;5.596;2022-11-15T02:24:31;8.60;99.90
19522;DHT22;9905;52.126;5.596;2022-11-15T02:30:35;8.60;99.90
19522;DHT22;9905;52.126;5.596;2022-11-15T02:33:14;8.60;99.90
19522;DHT22;9905;52.126;5.596;2022-11-15T02:35:47;8.70;99.90
19522;DHT22;9905;52.126;5.596;2022-11-15T02:38:24;8.70;99.90
19522;DHT22;9905;52.126;5.596;2022-11-15T02:40:58;8.70;99.90
19522;DHT22;9905;52.126;5.596;2022-11-15T02:43:29;8.70;99.90
19522;DHT22;9905;52.126;5.596;2022-11-15T02:46:19;8.80;99.90
19522;DHT22;9905;52.126;5.596;2022-11-15T02:49:10;8.80;99.90
19522;DHT22;9905;52.126;5.596;2022-11-15T02:51:37;8.90;99.90
19522;DHT22;9905;52.126;5.596;2022-11-15T02:54:04;8.90;99.90
19522;DHT22;9905;52.126;5.596;2022-11-15T02:56:31;8.90;99.90
19522;DHT22;9905;52.126;5.596;2022-11-15T02:59:09;8.90;99.90
19522;DHT22;9905;52.126;5.596;2022-11-15T03:01:46;9.00;99.90
19522;DHT22;9905;52.126;5.596;2022-11-15T03:04:24;9.00;99.90
19522;DHT22;9905;52.126;5.596;2022-11-15T03:07:00;9.00;99.90
19522;DHT22;9905;52.126;5.596;2022-11-15T03:09:34;9.10;99.90
19522;DHT22;9905;52.126;5.596;2022-11-15T03:12:04;9.10;99.90
19522;DHT22;9905;52.126;5.596;2022-11-15T03:14:35;9.20;99.90
19522;DHT22;9905;52.126;5.596;2022-11-15T03:17:14;9.20;99.90
19522;DHT22;9905;52.126;5.596;2022-11-15T03:19:44;9.20;99.90
19522;DHT22;9905;52.126;5.596;2022-11-15T03:22:13;9.20;99.90
19522;DHT22;9905;52.126;5.596;2022-11-15T03:24:44;9.30;99.90
19522;DHT22;9905;52.126;5.596;2022-11-15T03:27:14;9.40;99.90
19522;DHT22;9905;52.126;5.596;2022-11-15T03:29:44;9.40;99.90
19522;DHT22;9905;52.126;5.596;2022-11-15T03:32:16;9.40;99.90
19522;DHT22;9905;52.126;5.596;2022-11-15T03:34:49;9.50;99.90
19522;DHT22;9905;52.126;5.596;2022-11-15T03:37:17;9.50;99.90
19522;DHT22;9905;52.126;5.596;2022-11-15T03:39:47;9.50;99.90
19522;DHT22;9905;52.126;5.596;2022-11-15T03:42:21;9.60;99.90
19522;DHT22;9905;52.126;5.596;2022-11-15T03:44:52;9.60;99.90
19522;DHT22;9905;52.126;5.596;2022-11-15T03:47:27;9.60;99.90
19522;DHT22;9905;52.126;5.596;2022-11-15T03:49:58;9.60;99.90
19522;DHT22;9905;52.126;5.596;2022-11-15T03:52:25;9.60;99.90
19522;DHT22;9905;52.126;5.596;2022-11-15T03:54:55;9.70;99.90
19522;DHT22;9905;52.126;5.596;2022-11-15T03:57:22;9.80;99.90
19522;DHT22;9905;52.126;5.596;2022-11-15T03:59:49;9.80;99.90
19522;DHT22;9905;52.126;5.596;2022-11-15T04:02:16;9.90;99.90
19522;DHT22;9905;52.126;5.596;2022-11-15T04:04:44;9.90;99.90
19522;DHT22;9905;52.126;5.596;2022-11-15T04:07:11;9.90;99.90
19522;DHT22;9905;52.126;5.596;2022-11-15T04:09:38;10.00;99.90
19522;DHT22;9905;52.126;5.596;2022-11-15T04:12:25;10.00;99.90
19522;DHT22;9905;52.126;5.596;2022-11-15T04:14:58;10.00;99.90
19522;DHT22;9905;52.126;5.596;2022-11-15T04:17:38;10.10;99.90
19522;DHT22;9905;52.126;5.596;2022-11-15T04:20:09;10.10;99.90
19522;DHT22;9905;52.126;5.596;2022-11-15T04:22:55;10.10;99.90
19522;DHT22;9905;52.126;5.596;2022-11-15T04:25:39;10.20;99.90
19522;DHT22;9905;52.126;5.596;2022-11-15T04:28:06;10.20;99.90
19522;DHT22;9905;52.126;5.596;2022-11-15T04:30:33;10.20;99.90
19522;DHT22;9905;52.126;5.596;2022-11-15T04:33:00;10.20;99.90
19522;DHT22;9905;52.126;5.596;2022-11-15T04:35:28;10.20;99.90
19522;DHT22;9905;52.126;5.596;2022-11-15T04:37:56;10.30;99.90
19522;DHT22;9905;52.126;5.596;2022-11-15T04:40:22;10.30;99.90
19522;DHT22;9905;52.126;5.596;2022-11-15T04:42:49;10.30;99.90
19522;DHT22;9905;52.126;5.596;2022-11-15T04:45:16;10.30;99.90
19522;DHT22;9905;52.126;5.596;2022-11-15T04:47:43;10.30;99.90
19522;DHT22;9905;52.126;5.596;2022-11-15T04:50:11;10.30;99.90
19522;DHT22;9905;52.126;5.596;2022-11-15T04:52:40;10.30;99.90
19522;DHT22;9905;52.126;5.596;2022-11-15T04:55:07;10.30;99.90
19522;DHT22;9905;52.126;5.596;2022-11-15T04:57:34;10.40;99.90
19522;DHT22;9905;52.126;5.596;2022-11-15T05:00:02;10.40;99.90
19522;DHT22;9905;52.126;5.596;2022-11-15T05:02:29;10.50;99.90
19522;DHT22;9905;52.126;5.596;2022-11-15T05:05:16;10.50;99.90
19522;DHT22;9905;52.126;5.596;2022-11-15T05:07:43;10.50;99.90
19522;DHT22;9905;52.126;5.596;2022-11-15T05:10:10;10.50;99.90
19522;DHT22;9905;52.126;5.596;2022-11-15T05:12:37;10.50;99.90
19522;DHT22;9905;52.126;5.596;2022-11-15T05:15:04;10.50;99.90
19522;DHT22;9905;52.126;5.596;2022-11-15T05:17:31;10.60;99.90
19522;DHT22;9905;52.126;5.596;2022-11-15T05:19:58;10.60;99.90
19522;DHT22;9905;52.126;5.596;2022-11-15T05:22:24;10.60;99.90
19522;DHT22;9905;52.126;5.596;2022-11-15T05:24:53;10.60;99.90
19522;DHT22;9905;52.126;5.596;2022-11-15T05:27:19;10.60;99.90
19522;DHT22;9905;52.126;5.596;2022-11-15T05:29:46;10.70;99.90
19522;DHT22;9905;52.126;5.596;2022-11-15T05:32:13;10.60;99.90
19522;DHT22;9905;52.126;5.596;2022-11-15T05:34:40;10.60;99.90
19522;DHT22;9905;52.126;5.596;2022-11-15T05:37:07;10.60;99.90
19522;DHT22;9905;52.126;5.596;2022-11-15T05:39:34;10.60;99.90
19522;DHT22;9905;52.126;5.596;2022-11-15T05:42:06;10.60;99.90
19522;DHT22;9905;52.126;5.596;2022-11-15T05:44:35;10.60;99.90
19522;DHT22;9905;52.126;5.596;2022-11-15T05:47:03;10.70;99.90
19522;DHT22;9905;52.126;5.596;2022-11-15T05:49:34;10.60;99.90
19522;DHT22;9905;52.126;5.596;2022-11-15T05:52:03;10.70;99.90
19522;DHT22;9905;52.126;5.596;2022-11-15T05:54:32;10.70;99.90
19522;DHT22;9905;52.126;5.596;2022-11-15T05:56:59;10.70;99.90
19522;DHT22;9905;52.126;5.596;2022-11-15T05:59:28;10.80;99.90
19522;DHT22;9905;52.126;5.596;2022-11-15T06:01:55;10.80;99.90
19522;DHT22;9905;52.126;5.596;2022-11-15T06:04:22;10.80;99.90
19522;DHT22;9905;52.126;5.596;2022-11-15T06:06:49;10.70;99.90
19522;DHT22;9905;52.126;5.596;2022-11-15T06:09:16;10.80;99.90
19522;DHT22;9905;52.126;5.596;2022-11-15T06:11:43;10.80;99.90
19522;DHT22;9905;52.126;5.596;2022-11-15T06:14:09;10.80;99.90
19522;DHT22;9905;52.126;5.596;2022-11-15T06:16:37;10.90;99.90
19522;DHT22;9905;52.126;5.596;2022-11-15T06:19:06;10.90;99.90
19522;DHT22;9905;52.126;5.596;2022-11-15T06:21:32;10.90;99.90
19522;DHT22;9905;52.126;5.596;2022-11-15T06:23:59;10.90;99.90
19522;DHT22;9905;52.126;5.596;2022-11-15T06:26:26;10.90;99.90
19522;DHT22;9905;52.126;5.596;2022-11-15T06:28:53;10.90;99.90
19522;DHT22;9905;52.126;5.596;2022-11-15T06:31:20;11.00;99.90
19522;DHT22;9905;52.126;5.596;2022-11-15T06:33:48;11.00;99.90
19522;DHT22;9905;52.126;5.596;2022-11-15T06:36:15;11.00;99.90
19522;DHT22;9905;52.126;5.596;2022-11-15T06:38:42;11.00;99.90
19522;DHT22;9905;52.126;5.596;2022-11-15T06:41:10;11.00;99.90
19522;DHT22;9905;52.126;5.596;2022-11-15T06:43:37;11.00;99.90
19522;DHT22;9905;52.126;5.596;2022-11-15T06:46:05;11.00;99.90
19522;DHT22;9905;52.126;5.596;2022-11-15T06:48:33;11.00;99.90
19522;DHT22;9905;52.126;5.596;2022-11-15T06:51:03;11.00;99.90
19522;DHT22;9905;52.126;5.596;2022-11-15T06:53:31;11.10;99.90
19522;DHT22;9905;52.126;5.596;2022-11-15T06:55:59;11.10;99.90
19522;DHT22;9905;52.126;5.596;2022-11-15T06:58:26;11.10;99.90
19522;DHT22;9905;52.126;5.596;2022-11-15T07:00:53;11.20;99.90
19522;DHT22;9905;52.126;5.596;2022-11-15T07:03:20;11.10;99.90
19522;DHT22;9905;52.126;5.596;2022-11-15T07:05:51;11.10;99.90
19522;DHT22;9905;52.126;5.596;2022-11-15T07:08:21;11.20;99.90
19522;DHT22;9905;52.126;5.596;2022-11-15T07:10:47;11.20;99.90
19522;DHT22;9905;52.126;5.596;2022-11-15T07:13:14;11.20;99.90
19522;DHT22;9905;52.126;5.596;2022-11-15T07:15:41;11.20;99.90
19522;DHT22;9905;52.126;5.596;2022-11-15T07:18:08;11.10;99.90
19522;DHT22;9905;52.126;5.596;2022-11-15T07:20:34;11.10;99.90
19522;DHT22;9905;52.126;5.596;2022-11-15T07:23:02;11.10;99.90
19522;DHT22;9905;52.126;5.596;2022-11-15T07:25:30;11.20;99.90
19522;DHT22;9905;52.126;5.596;2022-11-15T07:27:58;11.10;99.90
19522;DHT22;9905;52.126;5.596;2022-11-15T07:30:26;11.10;99.90
19522;DHT22;9905;52.126;5.596;2022-11-15T07:32:53;11.10;99.90
19522;DHT22;9905;52.126;5.596;2022-11-15T07:35:20;11.10;99.90
19522;DHT22;9905;52.126;5.596;2022-11-15T07:37:53;11.10;99.90
19522;DHT22;9905;52.126;5.596;2022-11-15T07:40:21;11.20;99.90
19522;DHT22;9905;52.126;5.596;2022-11-15T07:42:49;11.20;99.90
19522;DHT22;9905;52.126;5.596;2022-11-15T07:45:23;11.30;99.90
19522;DHT22;9905;52.126;5.596;2022-11-15T07:47:52;11.20;99.90
19522;DHT22;9905;52.126;5.596;2022-11-15T07:50:19;11.30;99.90
19522;DHT22;9905;52.126;5.596;2022-11-15T07:52:46;11.30;99.90
19522;DHT22;9905;52.126;5.596;2022-11-15T07:55:13;11.30;99.90
19522;DHT22;9905;52.126;5.596;2022-11-15T07:57:40;11.20;99.90
19522;DHT22;9905;52.126;5.596;2022-11-15T08:00:09;11.20;99.90
19522;DHT22;9905;52.126;5.596;2022-11-15T08:02:36;11.30;99.90
19522;DHT22;9905;52.126;5.596;2022-11-15T08:05:04;11.30;99.90
19522;DHT22;9905;52.126;5.596;2022-11-15T08:07:31;11.30;99.90
19522;DHT22;9905;52.126;5.596;2022-11-15T08:09:58;11.30;99.90
19522;DHT22;9905;52.126;5.596;2022-11-15T08:12:26;11.30;99.90
19522;DHT22;9905;52.126;5.596;2022-11-15T08:14:54;11.40;99.90
19522;DHT22;9905;52.126;5.596;2022-11-15T08:17:22;11.30;99.90
19522;DHT22;9905;52.126;5.596;2022-11-15T08:19:49;11.30;99.90
19522;DHT22;9905;52.126;5.596;2022-11-15T08:22:16;11.20;99.90
19522;DHT22;9905;52.126;5.596;2022-11-15T08:24:43;11.20;99.90
19522;DHT22;9905;52.126;5.596;2022-11-15T08:27:10;11.20;99.90
19522;DHT22;9905;52.126;5.596;2022-11-15T08:29:41;11.20;99.90
19522;DHT22;9905;52.126;5.596;2022-11-15T08:32:08;11.30;99.90
19522;DHT22;9905;52.126;5.596;2022-11-15T08:34:36;11.30;99.90
19522;DHT22;9905;52.126;5.596;2022-11-15T08:37:03;11.40;99.90
19522;DHT22;9905;52.126;5.596;2022-11-15T08:39:30;11.30;99.90
19522;DHT22;9905;52.126;5.596;2022-11-15T08:41:57;11.40;99.90
19522;DHT22;9905;52.126;5.596;2022-11-15T08:44:24;11.50;99.90
19522;DHT22;9905;52.126;5.596;2022-11-15T08:46:50;11.50;99.90
19522;DHT22;9905;52.126;5.596;2022-11-15T08:49:17;11.50;99.90
19522;DHT22;9905;52.126;5.596;2022-11-15T08:51:46;11.50;99.90
19522;DHT22;9905;52.126;5.596;2022-11-15T08:54:12;11.50;99.90
19522;DHT22;9905;52.126;5.596;2022-11-15T08:56:39;11.60;99.90
19522;DHT22;9905;52.126;5.596;2022-11-15T08:59:06;11.60;99.90
19522;DHT22;9905;52.126;5.596;2022-11-15T09:01:33;11.60;99.90
19522;DHT22;9905;52.126;5.596;2022-11-15T09:04:00;11.60;99.90
19522;DHT22;9905;52.126;5.596;2022-11-15T09:06:26;11.60;99.90
19522;DHT22;9905;52.126;5.596;2022-11-15T09:08:55;11.70;99.90
19522;DHT22;9905;52.126;5.596;2022-11-15T09:11:21;11.70;99.90
19522;DHT22;9905;52.126;5.596;2022-11-15T09:13:48;11.70;99.90
19522;DHT22;9905;52.126;5.596;2022-11-15T09:16:15;11.80;99.90
19522;DHT22;9905;52.126;5.596;2022-11-15T09:18:42;11.90;99.90
19522;DHT22;9905;52.126;5.596;2022-11-15T09:21:09;11.90;99.90
19522;DHT22;9905;52.126;5.596;2022-11-15T09:23:36;11.90;99.90
19522;DHT22;9905;52.126;5.596;2022-11-15T09:26:05;11.90;99.90
19522;DHT22;9905;52.126;5.596;2022-11-15T09:28:33;11.80;99.90
19522;DHT22;9905;52.126;5.596;2022-11-15T09:31:00;11.80;99.90
19522;DHT22;9905;52.126;5.596;2022-11-15T09:33:28;11.80;99.90
19522;DHT22;9905;52.126;5.596;2022-11-15T09:35:57;11.80;99.90
19522;DHT22;9905;52.126;5.596;2022-11-15T09:38:26;11.80;99.90
19522;DHT22;9905;52.126;5.596;2022-11-15T09:41:06;11.80;99.90
19522;DHT22;9905;52.126;5.596;2022-11-15T09:43:42;11.80;99.90
19522;DHT22;9905;52.126;5.596;2022-11-15T09:46:14;11.80;99.90
19522;DHT22;9905;52.126;5.596;2022-11-15T09:48:48;11.90;99.90
19522;DHT22;9905;52.126;5.596;2022-11-15T09:51:24;11.90;99.90
19522;DHT22;9905;52.126;5.596;2022-11-15T09:53:58;11.90;99.90
19522;DHT22;9905;52.126;5.596;2022-11-15T09:56:28;11.90;99.90
19522;DHT22;9905;52.126;5.596;2022-11-15T09:59:05;11.90;99.90
19522;DHT22;9905;52.126;5.596;2022-11-15T10:01:43;11.90;99.90
19522;DHT22;9905;52.126;5.596;2022-11-15T10:04:11;11.90;99.90
19522;DHT22;9905;52.126;5.596;2022-11-15T10:06:42;11.90;99.90
19522;DHT22;9905;52.126;5.596;2022-11-15T10:09:15;12.00;99.90
19522;DHT22;9905;52.126;5.596;2022-11-15T10:11:42;12.10;99.90
19522;DHT22;9905;52.126;5.596;2022-11-15T10:14:13;12.10;99.90
19522;DHT22;9905;52.126;5.596;2022-11-15T10:17:09;12.10;99.90
19522;DHT22;9905;52.126;5.596;2022-11-15T10:19:52;12.10;99.90
19522;DHT22;9905;52.126;5.596;2022-11-15T10:22:26;12.00;99.90
19522;DHT22;9905;52.126;5.596;2022-11-15T10:25:00;12.00;99.90
19522;DHT22;9905;52.126;5.596;2022-11-15T10:27:33;12.00;99.90
19522;DHT22;9905;52.126;5.596;2022-11-15T10:30:02;12.10;99.90
19522;DHT22;9905;52.126;5.596;2022-11-15T10:32:32;12.00;99.90
19522;DHT22;9905;52.126;5.596;2022-11-15T10:35:16;12.10;99.90
19522;DHT22;9905;52.126;5.596;2022-11-15T10:37:43;12.10;99.90
19522;DHT22;9905;52.126;5.596;2022-11-15T10:40:16;12.10;99.90
19522;DHT22;9905;52.126;5.596;2022-11-15T10:42:43;12.10;99.90
19522;DHT22;9905;52.126;5.596;2022-11-15T10:45:26;12.10;99.90
19522;DHT22;9905;52.126;5.596;2022-11-15T10:47:53;12.20;99.90
19522;DHT22;9905;52.126;5.596;2022-11-15T10:50:31;12.30;99.90
19522;DHT22;9905;52.126;5.596;2022-11-15T10:52:58;12.20;99.90
19522;DHT22;9905;52.126;5.596;2022-11-15T10:55:30;12.10;99.90
19522;DHT22;9905;52.126;5.596;2022-11-15T10:58:02;12.10;99.90
19522;DHT22;9905;52.126;5.596;2022-11-15T11:00:33;12.20;99.90
19522;DHT22;9905;52.126;5.596;2022-11-15T11:03:03;12.10;99.90
19522;DHT22;9905;52.126;5.596;2022-11-15T11:05:33;12.10;99.90
19522;DHT22;9905;52.126;5.596;2022-11-15T11:08:01;12.20;99.90
19522;DHT22;9905;52.126;5.596;2022-11-15T11:10:29;12.20;99.90
19522;DHT22;9905;52.126;5.596;2022-11-15T11:12:56;12.30;99.90
19522;DHT22;9905;52.126;5.596;2022-11-15T11:15:41;12.30;99.90
19522;DHT22;9905;52.126;5.596;2022-11-15T11:18:17;12.30;99.90
19522;DHT22;9905;52.126;5.596;2022-11-15T11:20:48;12.30;99.90
19522;DHT22;9905;52.126;5.596;2022-11-15T11:23:31;12.40;99.90
19522;DHT22;9905;52.126;5.596;2022-11-15T11:26:08;12.40;99.90
19522;DHT22;9905;52.126;5.596;2022-11-15T11:28:43;12.50;99.90
19522;DHT22;9905;52.126;5.596;2022-11-15T11:31:20;12.50;99.90
19522;DHT22;9905;52.126;5.596;2022-11-15T11:33:58;12.60;99.90
19522;DHT22;9905;52.126;5.596;2022-11-15T11:36:35;12.60;99.90
19522;DHT22;9905;52.126;5.596;2022-11-15T11:39:18;12.70;99.90
19522;DHT22;9905;52.126;5.596;2022-11-15T11:41:53;12.60;99.90
19522;DHT22;9905;52.126;5.596;2022-11-15T11:44:32;12.60;99.90
19522;DHT22;9905;52.126;5.596;2022-11-15T11:47:03;12.60;99.90
19522;DHT22;9905;52.126;5.596;2022-11-15T11:49:38;12.60;99.90
19522;DHT22;9905;52.126;5.596;2022-11-15T11:52:10;12.50;99.90
19522;DHT22;9905;52.126;5.596;2022-11-15T11:54:45;12.40;99.90
19522;DHT22;9905;52.126;5.596;2022-11-15T11:57:20;12.40;99.90
19522;DHT22;9905;52.126;5.596;2022-11-15T11:59:51;12.40;99.90
19522;DHT22;9905;52.126;5.596;2022-11-15T12:02:31;12.40;99.90
19522;DHT22;9905;52.126;5.596;2022-11-15T12:05:07;12.50;99.90
19522;DHT22;9905;52.126;5.596;2022-11-15T12:07:38;12.50;99.90
19522;DHT22;9905;52.126;5.596;2022-11-15T12:10:17;12.50;99.90
19522;DHT22;9905;52.126;5.596;2022-11-15T12:12:51;12.50;99.90
19522;DHT22;9905;52.126;5.596;2022-11-15T12:15:22;12.60;99.90
19522;DHT22;9905;52.126;5.596;2022-11-15T12:17:52;12.60;99.90
19522;DHT22;9905;52.126;5.596;2022-11-15T12:20:22;12.60;99.90
19522;DHT22;9905;52.126;5.596;2022-11-15T12:22:53;12.70;99.90
19522;DHT22;9905;52.126;5.596;2022-11-15T12:25:24;12.70;99.90
19522;DHT22;9905;52.126;5.596;2022-11-15T12:27:56;12.70;99.90
19522;DHT22;9905;52.126;5.596;2022-11-15T12:30:24;12.70;99.90
19522;DHT22;9905;52.126;5.596;2022-11-15T12:32:57;12.70;99.90
19522;DHT22;9905;52.126;5.596;2022-11-15T12:35:28;12.60;99.90
19522;DHT22;9905;52.126;5.596;2022-11-15T12:37:56;12.60;99.90
19522;DHT22;9905;52.126;5.596;2022-11-15T12:40:29;12.60;99.90
19522;DHT22;9905;52.126;5.596;2022-11-15T12:43:02;12.60;99.90
19522;DHT22;9905;52.126;5.596;2022-11-15T12:45:31;12.70;99.90
19522;DHT22;9905;52.126;5.596;2022-11-15T12:50:59;12.70;99.90
19522;DHT22;9905;52.126;5.596;2022-11-15T12:53:27;12.70;99.90
19522;DHT22;9905;52.126;5.596;2022-11-15T12:56:15;12.70;99.90
19522;DHT22;9905;52.126;5.596;2022-11-15T12:58:45;12.70;99.90
19522;DHT22;9905;52.126;5.596;2022-11-15T13:04:23;12.70;99.90
19522;DHT22;9905;52.126;5.596;2022-11-15T13:06:54;12.80;99.90
19522;DHT22;9905;52.126;5.596;2022-11-15T13:09:53;12.80;99.90
19522;DHT22;9905;52.126;5.596;2022-11-15T13:12:54;12.80;99.90
19522;DHT22;9905;52.126;5.596;2022-11-15T13:15:53;12.80;99.90
19522;DHT22;9905;52.126;5.596;2022-11-15T13:18:34;12.90;99.90
19522;DHT22;9905;52.126;5.596;2022-11-15T13:21:03;12.90;99.90
19522;DHT22;9905;52.126;5.596;2022-11-15T13:23:55;12.90;99.90
19522;DHT22;9905;52.126;5.596;2022-11-15T13:26:22;12.90;99.90
19522;DHT22;9905;52.126;5.596;2022-11-15T13:28:50;12.90;99.90
19522;DHT22;9905;52.126;5.596;2022-11-15T13:31:28;12.80;99.90
19522;DHT22;9905;52.126;5.596;2022-11-15T13:33:59;12.80;99.90
19522;DHT22;9905;52.126;5.596;2022-11-15T13:36:28;12.80;99.90
19522;DHT22;9905;52.126;5.596;2022-11-15T13:38:59;12.80;99.90
19522;DHT22;9905;52.126;5.596;2022-11-15T13:41:28;12.80;99.90
19522;DHT22;9905;52.126;5.596;2022-11-15T13:43:56;12.70;99.90
19522;DHT22;9905;52.126;5.596;2022-11-15T13:46:25;12.70;99.90
19522;DHT22;9905;52.126;5.596;2022-11-15T13:48:55;12.70;99.90
19522;DHT22;9905;52.126;5.596;2022-11-15T13:51:25;12.70;99.90
19522;DHT22;9905;52.126;5.596;2022-11-15T13:53:58;12.60;99.90
19522;DHT22;9905;52.126;5.596;2022-11-15T13:56:26;12.60;99.90
19522;DHT22;9905;52.126;5.596;2022-11-15T13:58:54;12.60;99.90
19522;DHT22;9905;52.126;5.596;2022-11-15T14:01:22;12.50;99.90
19522;DHT22;9905;52.126;5.596;2022-11-15T14:03:55;12.40;99.90
19522;DHT22;9905;52.126;5.596;2022-11-15T14:06:24;12.50;99.90
19522;DHT22;9905;52.126;5.596;2022-11-15T14:09:29;12.50;99.90
19522;DHT22;9905;52.126;5.596;2022-11-15T14:11:57;12.40;99.90
19522;DHT22;9905;52.126;5.596;2022-11-15T14:14:25;12.40;99.90
19522;DHT22;9905;52.126;5.596;2022-11-15T14:16:53;12.40;99.90
19522;DHT22;9905;52.126;5.596;2022-11-15T14:19:37;12.30;99.90
19522;DHT22;9905;52.126;5.596;2022-11-15T14:22:10;12.30;99.90
19522;DHT22;9905;52.126;5.596;2022-11-15T14:24:38;12.30;99.90
19522;DHT22;9905;52.126;5.596;2022-11-15T14:27:23;12.20;99.90
19522;DHT22;9905;52.126;5.596;2022-11-15T14:29:50;12.20;99.90
19522;DHT22;9905;52.126;5.596;2022-11-15T14:32:18;12.20;99.90
19522;DHT22;9905;52.126;5.596;2022-11-15T14:34:46;12.20;99.90
19522;DHT22;9905;52.126;5.596;2022-11-15T14:37:20;12.20;99.90
19522;DHT22;9905;52.126;5.596;2022-11-15T14:39:50;12.20;99.90
19522;DHT22;9905;52.126;5.596;2022-11-15T14:42:17;12.20;99.90
19522;DHT22;9905;52.126;5.596;2022-11-15T14:44:44;12.10;99.90
19522;DHT22;9905;52.126;5.596;2022-11-15T14:47:10;12.10;99.90
19522;DHT22;9905;52.126;5.596;2022-11-15T14:49:37;12.10;99.90
19522;DHT22;9905;52.126;5.596;2022-11-15T14:52:13;12.10;99.90
19522;DHT22;9905;52.126;5.596;2022-11-15T14:54:42;12.10;99.90
19522;DHT22;9905;52.126;5.596;2022-11-15T14:57:10;12.10;99.90
19522;DHT22;9905;52.126;5.596;2022-11-15T14:59:37;12.10;99.90
19522;DHT22;9905;52.126;5.596;2022-11-15T15:02:10;12.10;99.90
19522;DHT22;9905;52.126;5.596;2022-11-15T15:04:41;12.10;99.90
19522;DHT22;9905;52.126;5.596;2022-11-15T15:07:07;12.20;99.90
19522;DHT22;9905;52.126;5.596;2022-11-15T15:09:34;12.10;99.90
19522;DHT22;9905;52.126;5.596;2022-11-15T15:12:01;12.10;99.90
19522;DHT22;9905;52.126;5.596;2022-11-15T15:14:29;12.10;99.90
19522;DHT22;9905;52.126;5.596;2022-11-15T15:16:56;12.10;99.90
19522;DHT22;9905;52.126;5.596;2022-11-15T15:19:22;12.10;99.90
19522;DHT22;9905;52.126;5.596;2022-11-15T15:21:49;12.10;99.90
19522;DHT22;9905;52.126;5.596;2022-11-15T15:24:16;12.10;99.90
19522;DHT22;9905;52.126;5.596;2022-11-15T15:26:42;12.10;99.90
19522;DHT22;9905;52.126;5.596;2022-11-15T15:29:09;12.10;99.90
19522;DHT22;9905;52.126;5.596;2022-11-15T15:31:37;12.20;99.90
19522;DHT22;9905;52.126;5.596;2022-11-15T15:34:04;12.20;99.90
19522;DHT22;9905;52.126;5.596;2022-11-15T15:36:31;12.20;99.90
19522;DHT22;9905;52.126;5.596;2022-11-15T15:38:58;12.20;99.90
19522;DHT22;9905;52.126;5.596;2022-11-15T15:41:25;12.20;99.90
19522;DHT22;9905;52.126;5.596;2022-11-15T15:43:51;12.20;99.90
19522;DHT22;9905;52.126;5.596;2022-11-15T15:46:19;12.20;99.90
19522;DHT22;9905;52.126;5.596;2022-11-15T15:48:47;12.20;99.90
19522;DHT22;9905;52.126;5.596;2022-11-15T15:51:14;12.20;99.90
19522;DHT22;9905;52.126;5.596;2022-11-15T15:53:41;12.20;99.90
19522;DHT22;9905;52.126;5.596;2022-11-15T15:56:08;12.10;99.90
19522;DHT22;9905;52.126;5.596;2022-11-15T15:58:35;12.10;99.90
19522;DHT22;9905;52.126;5.596;2022-11-15T16:01:02;12.10;99.90
19522;DHT22;9905;52.126;5.596;2022-11-15T16:03:29;12.10;99.90
19522;DHT22;9905;52.126;5.596;2022-11-15T16:05:57;12.10;99.90
19522;DHT22;9905;52.126;5.596;2022-11-15T16:08:24;12.20;99.90
19522;DHT22;9905;52.126;5.596;2022-11-15T16:10:53;12.20;99.90
19522;DHT22;9905;52.126;5.596;2022-11-15T16:13:19;12.20;99.90
19522;DHT22;9905;52.126;5.596;2022-11-15T16:15:48;12.20;99.90
19522;DHT22;9905;52.126;5.596;2022-11-15T16:18:17;12.30;99.90